createdAt,value
2022-11-13T00:02:10.074Z,102683.63
2022-11-13T00:04:54.865Z,102680.75
2022-11-13T00:07:39.644Z,102674.25
2022-11-13T00:10:24.537Z,102682.09
2022-11-13T00:13:09.426Z,102675.59
2022-11-13T00:15:58.069Z,102674.06
2022-11-13T00:18:43.221Z,102678.31
2022-11-13T00:21:27.975Z,102673.31
2022-11-13T00:24:12.857Z,102673.31
2022-11-13T00:26:57.560Z,102666.06
2022-11-13T00:29:42.383Z,102658.78
2022-11-13T00:32:27.193Z,102660.16
2022-11-13T00:35:12.001Z,102655.91
2022-11-13T00:37:56.882Z,102658.53
2022-11-13T00:40:41.711Z,102660.91
2022-11-13T00:43:26.594Z,102662.44
2022-11-13T00:46:11.348Z,102653.97
2022-11-13T00:48:56.254Z,102656.69
2022-11-13T00:51:41.184Z,102652.44
2022-11-13T00:54:26.051Z,102652.44
2022-11-13T00:57:10.907Z,102650.94
2022-11-13T00:59:55.672Z,102662.44
2022-11-13T01:02:40.547Z,102652.28
2022-11-13T01:05:25.365Z,102644.28
2022-11-13T01:08:10.324Z,102642.16
2022-11-13T01:10:55.134Z,102639.88
2022-11-13T01:13:40.486Z,102624.72
2022-11-13T01:16:25.494Z,102626.84
2022-11-13T01:19:10.497Z,102618.22
2022-11-13T01:21:55.345Z,102626.06
2022-11-13T01:24:40.229Z,102626.06
2022-11-13T01:27:25.124Z,102618.03
2022-11-13T01:30:10.002Z,102623.00
2022-11-13T01:32:54.805Z,102618.78
2022-11-13T01:35:39.653Z,102610.00
2022-11-13T01:38:24.675Z,102608.50
2022-11-13T01:41:12.925Z,102620.63
2022-11-13T01:43:57.664Z,102611.22
2022-11-13T01:46:42.697Z,102608.50
2022-11-13T01:49:31.408Z,102606.22
2022-11-13T01:52:20.081Z,102612.56
2022-11-13T01:55:08.879Z,102606.81
2022-11-13T01:57:54.120Z,102611.81
2022-11-13T02:00:39.351Z,102607.44
2022-11-13T02:03:24.158Z,102603.78
2022-11-13T02:06:09.001Z,102600.16
2022-11-13T02:08:53.774Z,102595.94
2022-11-13T02:11:38.636Z,102594.41
2022-11-13T02:14:23.627Z,102587.91
2022-11-13T02:17:16.948Z,102587.16
2022-11-13T02:20:02.102Z,102591.53
2022-11-13T02:23:06.733Z,102580.63
2022-11-13T02:25:52.143Z,102584.88
2022-11-13T02:28:37.185Z,102584.88
2022-11-13T02:31:22.084Z,102579.13
2022-11-13T02:34:06.845Z,102579.13
2022-11-13T02:36:51.553Z,102564.56
2022-11-13T02:39:36.498Z,102573.22
2022-11-13T02:42:21.426Z,102558.81
2022-11-13T02:45:06.451Z,102564.56
2022-11-13T02:47:51.678Z,102564.56
2022-11-13T02:50:36.534Z,102559.41
2022-11-13T02:53:21.331Z,102551.56
2022-11-13T02:56:06.231Z,102551.56
2022-11-13T02:58:51.005Z,102547.91
2022-11-13T03:01:35.922Z,102544.28
2022-11-13T03:04:20.634Z,102544.28
2022-11-13T03:07:05.550Z,102549.28
2022-11-13T03:09:50.833Z,102542.78
2022-11-13T03:12:35.736Z,102542.03
2022-11-13T03:15:20.572Z,102535.50
2022-11-13T03:18:05.668Z,102532.63
2022-11-13T03:20:53.882Z,102537.63
2022-11-13T03:23:39.279Z,102528.25
2022-11-13T03:26:24.324Z,102531.88
2022-11-13T03:29:09.242Z,102532.47
2022-11-13T03:31:54.122Z,102528.25
2022-11-13T03:34:39.177Z,102526.72
2022-11-13T03:37:24.270Z,102527.66
2022-11-13T03:40:09.238Z,102537.03
2022-11-13T03:42:54.486Z,102534.44
2022-11-13T03:45:39.347Z,102533.06
2022-11-13T03:48:24.232Z,102543.22
2022-11-13T03:51:09.096Z,102543.34
2022-11-13T03:53:53.932Z,102542.00
2022-11-13T03:56:38.747Z,102550.63
2022-11-13T03:59:23.570Z,102545.03
2022-11-13T04:02:08.399Z,102543.50
2022-11-13T04:04:53.115Z,102537.91
2022-11-13T04:07:37.920Z,102539.28
2022-11-13T04:10:22.889Z,102532.75
2022-11-13T04:13:07.665Z,102526.38
2022-11-13T04:15:52.570Z,102523.50
2022-11-13T04:18:37.392Z,102525.03
2022-11-13T04:21:22.228Z,102510.66
2022-11-13T04:24:07.073Z,102523.66
2022-11-13T04:26:51.934Z,102508.66
2022-11-13T04:29:36.700Z,102508.06
2022-11-13T04:32:21.472Z,102503.66
2022-11-13T04:35:06.719Z,102505.19
2022-11-13T04:37:51.948Z,102509.41
2022-11-13T04:40:36.926Z,102506.72
2022-11-13T04:43:21.768Z,102508.22
2022-11-13T04:46:06.612Z,102508.84
2022-11-13T04:48:51.407Z,102503.25
2022-11-13T04:51:36.285Z,102506.88
2022-11-13T04:54:25.777Z,102491.72
2022-11-13T04:57:13.414Z,102499.72
2022-11-13T04:59:58.439Z,102508.38
2022-11-13T05:02:43.399Z,102504.00
2022-11-13T05:05:28.133Z,102504.13
2022-11-13T05:08:13.101Z,102507.16
2022-11-13T05:10:57.912Z,102503.50
2022-11-13T05:13:42.684Z,102504.28
2022-11-13T05:16:27.421Z,102502.75
2022-11-13T05:19:12.311Z,102507.75
2022-11-13T05:21:57.099Z,102503.50
2022-11-13T05:24:42.131Z,102500.63
2022-11-13T05:27:26.968Z,102502.75
2022-11-13T05:30:11.705Z,102500.78
2022-11-13T05:32:56.602Z,102505.78
2022-11-13T05:35:41.393Z,102497.28
2022-11-13T05:38:26.968Z,102493.03
2022-11-13T05:41:12.625Z,102497.28
2022-11-13T05:43:59.656Z,102498.66
2022-11-13T05:46:44.849Z,102498.03
2022-11-13T05:49:29.699Z,102498.78
2022-11-13T05:52:14.599Z,102500.31
2022-11-13T05:54:59.394Z,102491.53
2022-11-13T05:57:44.251Z,102491.53
2022-11-13T06:00:29.080Z,102493.03
2022-11-13T06:03:14.031Z,102493.03
2022-11-13T06:05:59.254Z,102487.41
2022-11-13T06:08:44.478Z,102480.16
2022-11-13T06:11:29.572Z,102487.56
2022-11-13T06:14:14.554Z,102481.81
2022-11-13T06:16:59.385Z,102475.31
2022-11-13T06:19:44.838Z,102474.56
2022-11-13T06:22:29.776Z,102468.78
2022-11-13T06:25:14.748Z,102464.53
2022-11-13T06:27:59.605Z,102464.53
2022-11-13T06:30:44.541Z,102466.06
2022-11-13T06:33:29.453Z,102455.16
2022-11-13T06:36:15.113Z,102461.66
2022-11-13T06:39:00.253Z,102464.53
2022-11-13T06:41:45.584Z,102447.41
2022-11-13T06:44:30.508Z,102458.78
2022-11-13T06:47:15.361Z,102451.78
2022-11-13T06:50:00.361Z,102451.03
2022-11-13T06:52:45.276Z,102451.03
2022-11-13T06:55:30.161Z,102446.03
2022-11-13T06:58:14.927Z,102450.44
2022-11-13T07:01:07.005Z,102455.44
2022-11-13T07:03:51.907Z,102451.03
2022-11-13T07:06:40.335Z,102442.41
2022-11-13T07:09:25.408Z,102440.28
2022-11-13T07:12:10.382Z,102442.41
2022-11-13T07:14:55.195Z,102431.63
2022-11-13T07:17:40.141Z,102441.06
2022-11-13T07:20:24.905Z,102436.78
2022-11-13T07:23:09.790Z,102436.19
2022-11-13T07:25:57.637Z,102433.31
2022-11-13T07:28:42.709Z,102433.31
2022-11-13T07:31:27.624Z,102429.03
2022-11-13T07:34:12.423Z,102436.19
2022-11-13T07:36:57.305Z,102434.06
2022-11-13T07:39:42.168Z,102434.81
2022-11-13T07:42:26.976Z,102439.06
2022-11-13T07:45:11.775Z,102450.72
2022-11-13T07:48:00.163Z,102431.78
2022-11-13T07:50:45.289Z,102434.66
2022-11-13T07:53:30.143Z,102444.81
2022-11-13T07:56:18.863Z,102433.31
2022-11-13T07:59:06.857Z,102433.31
2022-11-13T08:01:51.617Z,102429.03
2022-11-13T08:04:36.512Z,102430.84
2022-11-13T08:07:21.877Z,102426.88
2022-11-13T08:10:08.619Z,102420.84
2022-11-13T08:13:03.749Z,102431.59
2022-11-13T08:15:48.820Z,102425.06
2022-11-13T08:18:33.701Z,102427.94
2022-11-13T08:21:18.474Z,102429.34
2022-11-13T08:24:03.289Z,102429.34
2022-11-13T08:26:48.075Z,102420.84
2022-11-13T08:29:33.032Z,102424.81
2022-11-13T08:32:18.132Z,102427.13
2022-11-13T08:35:03.182Z,102423.00
2022-11-13T08:37:48.119Z,102418.84
2022-11-13T08:40:32.999Z,102422.47
2022-11-13T08:46:23.777Z,102421.13
2022-11-13T08:49:08.895Z,102418.09
2022-11-13T08:51:53.843Z,102425.22
2022-11-13T08:54:38.677Z,102425.84
2022-11-13T08:57:23.556Z,102428.09
2022-11-13T09:00:08.571Z,102424.00
2022-11-13T09:02:54.578Z,102421.13
2022-11-13T09:05:39.636Z,102418.09
2022-11-13T09:08:24.597Z,102418.09
2022-11-13T09:11:09.530Z,102421.59
2022-11-13T09:13:54.438Z,102413.56
2022-11-13T09:16:39.348Z,102411.44
2022-11-13T09:19:24.162Z,102402.81
2022-11-13T09:22:09.108Z,102406.31
2022-11-13T09:24:53.811Z,102404.03
2022-11-13T09:27:38.808Z,102404.03
2022-11-13T09:30:23.685Z,102396.16
2022-11-13T09:33:09.641Z,102409.78
2022-11-13T09:35:54.589Z,102404.81
2022-11-13T09:38:39.372Z,102413.28
2022-11-13T09:41:28.522Z,102418.28
2022-11-13T09:44:33.679Z,102411.16
2022-11-13T09:47:20.286Z,102406.00
2022-11-13T09:50:05.931Z,102408.91
2022-11-13T09:52:52.063Z,102405.25
2022-11-13T09:55:38.614Z,102411.78
2022-11-13T09:58:29.399Z,102405.25
2022-11-13T10:01:22.574Z,102413.28
2022-11-13T10:04:11.975Z,102396.63
2022-11-13T10:07:13.389Z,102394.50
2022-11-13T10:10:20.171Z,102390.25
2022-11-13T10:13:04.947Z,102380.25
2022-11-13T10:15:51.246Z,102372.50
2022-11-13T10:18:36.368Z,102374.75
2022-11-13T10:21:27.624Z,102376.25
2022-11-13T10:24:22.082Z,102371.28
2022-11-13T10:27:10.808Z,102369.00
2022-11-13T10:29:56.513Z,102364.75
2022-11-13T10:32:41.380Z,102358.25
2022-11-13T10:35:28.856Z,102357.63
2022-11-13T10:38:22.135Z,102359.75
2022-11-13T10:41:07.721Z,102350.34
2022-11-13T10:43:53.381Z,102357.78
2022-11-13T10:46:38.207Z,102357.63
2022-11-13T10:49:26.073Z,102346.72
2022-11-13T10:52:16.977Z,102346.72
2022-11-13T10:55:12.212Z,102343.25
2022-11-13T10:57:57.776Z,102344.88
2022-11-13T11:00:44.866Z,102347.75
2022-11-13T11:03:30.091Z,102341.38
2022-11-13T11:06:15.347Z,102337.75
2022-11-13T11:09:07.396Z,102331.22
2022-11-13T11:12:16.052Z,102332.00
2022-11-13T11:15:03.413Z,102328.97
2022-11-13T11:17:58.038Z,102324.72
2022-11-13T11:20:43.699Z,102318.97
2022-11-13T11:23:45.248Z,102303.06
2022-11-13T11:26:31.715Z,102308.97
2022-11-13T11:29:33.457Z,102302.94
2022-11-13T11:32:37.516Z,102297.44
2022-11-13T11:35:23.794Z,102303.25
2022-11-13T11:38:14.187Z,102301.53
2022-11-13T11:41:03.120Z,102303.31
2022-11-13T11:44:02.100Z,102302.34
2022-11-13T11:46:47.166Z,102303.97
2022-11-13T11:49:32.127Z,102298.47
2022-11-13T11:52:27.343Z,102289.34
2022-11-13T11:55:29.813Z,102288.16
2022-11-13T11:58:36.669Z,102291.41
2022-11-13T12:01:21.645Z,102285.84
2022-11-13T12:04:10.301Z,102271.84
2022-11-13T12:07:13.879Z,102272.25
2022-11-13T12:09:59.054Z,102265.63
2022-11-13T12:12:53.294Z,102270.41
2022-11-13T12:15:56.701Z,102262.38
2022-11-13T12:18:44.479Z,102262.66
2022-11-13T12:21:36.624Z,102258.41
2022-11-13T12:24:44.014Z,102256.13
2022-11-13T12:27:38.295Z,102249.97
2022-11-13T12:30:25.277Z,102240.09
2022-11-13T12:33:21.777Z,102236.06
2022-11-13T12:36:07.511Z,102231.94
2022-11-13T12:38:57.083Z,102231.31
2022-11-13T12:41:44.693Z,102228.44
2022-11-13T12:44:30.594Z,102226.91
2022-11-13T12:47:16.845Z,102228.81
2022-11-13T12:50:04.037Z,102226.03
2022-11-13T12:53:01.636Z,102223.28
2022-11-13T12:55:53.902Z,102223.16
2022-11-13T12:58:38.765Z,102210.38
2022-11-13T13:01:23.839Z,102200.72
2022-11-13T13:04:11.847Z,102202.22
2022-11-13T13:06:59.909Z,102195.44
2022-11-13T13:09:50.545Z,102184.66
2022-11-13T13:12:54.046Z,102190.56
2022-11-13T13:15:39.829Z,102183.91
2022-11-13T13:18:26.589Z,102186.94
2022-11-13T13:21:12.665Z,102176.00
2022-11-13T13:23:57.736Z,102180.16
2022-11-13T13:26:46.457Z,102177.91
2022-11-13T13:29:32.919Z,102174.53
2022-11-13T13:32:35.477Z,102175.53
2022-11-13T13:35:21.985Z,102172.88
2022-11-13T13:38:13.508Z,102171.25
2022-11-13T13:41:24.756Z,102176.63
2022-11-13T13:44:13.032Z,102168.13
2022-11-13T13:46:57.991Z,102164.88
2022-11-13T13:49:42.915Z,102158.34
2022-11-13T13:52:31.652Z,102158.09
2022-11-13T13:55:22.969Z,102159.59
2022-11-13T13:58:08.608Z,102149.59
2022-11-13T14:01:17.760Z,102161.13
2022-11-13T14:04:14.089Z,102160.25
2022-11-13T14:06:59.781Z,102161.97
2022-11-13T14:09:45.020Z,102153.94
2022-11-13T14:12:29.846Z,102156.09
2022-11-13T14:15:44.101Z,102154.34
2022-11-13T14:18:29.059Z,102159.84
2022-11-13T14:21:16.557Z,102161.34
2022-11-13T14:24:03.452Z,102151.31
2022-11-13T14:26:55.406Z,102147.94
2022-11-13T14:29:44.506Z,102141.91
2022-11-13T14:32:30.802Z,102145.19
2022-11-13T14:35:22.942Z,102141.28
2022-11-13T14:38:19.043Z,102146.75
2022-11-13T14:41:04.436Z,102141.75
2022-11-13T14:43:50.649Z,102142.50
2022-11-13T14:46:36.783Z,102140.88
2022-11-13T14:49:28.580Z,102130.97
2022-11-13T14:52:20.378Z,102131.59
2022-11-13T14:55:15.175Z,102143.28
2022-11-13T14:58:01.109Z,102142.25
2022-11-13T15:00:45.989Z,102139.50
2022-11-13T15:03:31.051Z,102136.53
2022-11-13T15:06:17.192Z,102131.88
2022-11-13T15:09:02.343Z,102135.38
2022-11-13T15:11:50.473Z,102133.13
2022-11-13T15:14:35.545Z,102125.47
2022-11-13T15:17:20.858Z,102128.97
2022-11-13T15:20:09.678Z,102126.72
2022-11-13T15:22:54.971Z,102127.47
2022-11-13T15:25:39.912Z,102126.97
2022-11-13T15:28:24.768Z,102122.59
2022-11-13T15:31:20.237Z,102112.44
2022-11-13T15:34:05.031Z,102122.75
2022-11-13T15:36:50.289Z,102122.50
2022-11-13T15:39:35.296Z,102119.75
2022-11-13T15:42:21.467Z,102113.22
2022-11-13T15:45:06.606Z,102121.22
2022-11-13T15:47:51.365Z,102111.97
2022-11-13T15:50:36.205Z,102105.44
2022-11-13T15:53:20.992Z,102107.06
2022-11-13T15:56:09.244Z,102102.91
2022-11-13T15:58:54.369Z,102108.16
2022-11-13T16:01:39.516Z,102111.66
2022-11-13T16:04:30.197Z,102107.00
2022-11-13T16:07:25.934Z,102111.59
2022-11-13T16:10:11.202Z,102110.13
2022-11-13T16:12:56.554Z,102106.66
2022-11-13T16:15:41.743Z,102109.31
2022-11-13T16:18:27.558Z,102105.69
2022-11-13T16:21:13.551Z,102106.28
2022-11-13T16:23:58.657Z,102101.94
2022-11-13T16:26:44.539Z,102106.91
2022-11-13T16:29:30.860Z,102097.06
2022-11-13T16:32:16.541Z,102103.44
2022-11-13T16:35:01.436Z,102099.28
2022-11-13T16:37:46.296Z,102094.78
2022-11-13T16:40:31.015Z,102091.16
2022-11-13T16:43:16.564Z,102093.91
2022-11-13T16:46:01.636Z,102099.44
2022-11-13T16:48:46.939Z,102092.41
2022-11-13T16:51:31.941Z,102096.94
2022-11-13T16:54:16.713Z,102096.94
2022-11-13T16:57:01.632Z,102101.44
2022-11-13T16:59:46.359Z,102097.06
2022-11-13T17:02:31.179Z,102100.03
2022-11-13T17:05:16.253Z,102095.78
2022-11-13T17:08:01.732Z,102093.28
2022-11-13T17:10:46.538Z,102096.03
2022-11-13T17:13:31.903Z,102094.63
2022-11-13T17:16:17.202Z,102085.13
2022-11-13T17:19:02.279Z,102073.59
2022-11-13T17:21:47.247Z,102082.84
2022-11-13T17:24:32.085Z,102087.13
2022-11-13T17:27:16.999Z,102076.88
2022-11-13T17:30:01.964Z,102084.25
2022-11-13T17:32:47.198Z,102080.09
2022-11-13T17:35:32.273Z,102081.97
2022-11-13T17:38:17.532Z,102079.84
2022-11-13T17:41:05.980Z,102087.13
2022-11-13T17:43:51.158Z,102088.13
2022-11-13T17:46:36.069Z,102084.84
2022-11-13T17:49:21.146Z,102074.16
2022-11-13T17:52:06.333Z,102079.94
2022-11-13T17:54:51.618Z,102077.06
2022-11-13T17:57:36.430Z,102074.06
2022-11-13T18:00:21.377Z,102086.34
2022-11-13T18:03:06.200Z,102089.25
2022-11-13T18:05:51.120Z,102074.69
2022-11-13T18:08:37.687Z,102082.81
2022-11-13T18:11:23.683Z,102080.03
2022-11-13T18:14:08.782Z,102075.47
2022-11-13T18:16:53.701Z,102071.44
2022-11-13T18:19:38.596Z,102063.34
2022-11-13T18:22:23.585Z,102073.63
2022-11-13T18:25:08.467Z,102077.63
2022-11-13T18:27:53.370Z,102072.72
2022-11-13T18:30:39.270Z,102070.66
2022-11-13T18:33:24.052Z,102064.34
2022-11-13T18:36:08.921Z,102061.75
2022-11-13T18:38:53.825Z,102065.75
2022-11-13T18:41:38.590Z,102069.50
2022-11-13T18:44:23.509Z,102070.53
2022-11-13T18:47:08.379Z,102072.28
2022-11-13T18:49:53.864Z,102064.44
2022-11-13T18:52:38.818Z,102069.34
2022-11-13T18:55:23.736Z,102062.34
2022-11-13T18:58:08.726Z,102062.34
2022-11-13T19:00:53.550Z,102059.84
2022-11-13T19:03:50.844Z,102059.19
2022-11-13T19:06:45.441Z,102067.44
2022-11-13T19:09:30.713Z,102069.22
2022-11-13T19:12:15.714Z,102070.09
2022-11-13T19:15:01.785Z,102063.59
2022-11-13T19:17:51.742Z,102070.13
2022-11-13T19:20:38.434Z,102064.84
2022-11-13T19:23:24.402Z,102067.63
2022-11-13T19:26:09.537Z,102071.88
2022-11-13T19:28:54.737Z,102070.63
2022-11-13T19:31:41.032Z,102059.09
2022-11-13T19:34:26.524Z,102061.88
2022-11-13T19:37:16.241Z,102065.00
2022-11-13T19:40:03.683Z,102057.59
2022-11-13T19:42:48.541Z,102067.97
2022-11-13T19:45:35.269Z,102057.47
2022-11-13T19:48:20.411Z,102062.34
2022-11-13T19:51:05.734Z,102063.72
2022-11-13T19:53:54.266Z,102063.22
2022-11-13T19:56:39.059Z,102053.81
2022-11-13T19:59:23.896Z,102049.44
2022-11-13T20:02:08.890Z,102048.06
2022-11-13T20:04:53.939Z,102048.06
2022-11-13T20:07:38.880Z,102038.66
2022-11-13T20:10:37.733Z,102035.38
2022-11-13T20:13:22.648Z,102039.78
2022-11-13T20:16:07.983Z,102029.00
2022-11-13T20:18:53.792Z,102027.63
2022-11-13T20:21:38.925Z,102031.25
2022-11-13T20:24:23.862Z,102021.22
2022-11-13T20:27:08.734Z,102009.69
2022-11-13T20:29:54.605Z,102015.47
2022-11-13T20:32:39.779Z,102015.47
2022-11-13T20:35:27.264Z,102020.47
2022-11-13T20:38:12.032Z,102015.47
2022-11-13T20:40:56.850Z,102019.84
2022-11-13T20:43:41.635Z,102021.34
2022-11-13T20:46:26.606Z,102003.44
2022-11-13T20:49:11.416Z,102006.44
2022-11-13T20:51:57.430Z,102002.91
2022-11-13T20:54:42.846Z,101998.66
2022-11-13T20:57:27.693Z,102010.19
2022-11-13T21:00:12.662Z,102004.41
2022-11-13T21:02:57.483Z,102002.91
2022-11-13T21:05:42.436Z,102007.19
2022-11-13T21:08:27.763Z,101995.63
2022-11-13T21:11:44.197Z,101990.63
2022-11-13T21:14:31.634Z,102000.13
2022-11-13T21:17:16.865Z,101994.38
2022-11-13T21:20:01.726Z,101995.13
2022-11-13T21:22:46.539Z,101990.13
2022-11-13T21:25:31.359Z,102000.13
2022-11-13T21:28:20.922Z,102004.53
2022-11-13T21:31:10.497Z,102002.16
2022-11-13T21:33:55.615Z,101998.66
2022-11-13T21:36:40.427Z,101993.13
2022-11-13T21:39:25.294Z,101998.00
2022-11-13T21:42:52.192Z,101995.88
2022-11-13T21:45:37.119Z,101987.84
2022-11-13T21:48:22.473Z,101990.00
2022-11-13T21:51:07.295Z,101984.22
2022-11-13T21:53:52.306Z,101976.94
2022-11-13T21:56:37.421Z,101983.38
2022-11-13T21:59:22.487Z,101994.13
2022-11-13T22:02:09.808Z,101988.34
2022-11-13T22:04:54.871Z,101979.50
2022-11-13T22:07:39.945Z,101976.63
2022-11-13T22:10:24.712Z,101978.09
2022-11-13T22:13:09.713Z,101973.56
2022-11-13T22:15:54.423Z,101980.69
2022-11-13T22:18:39.344Z,101976.41
2022-11-13T22:21:24.375Z,101962.47
2022-11-13T22:24:09.512Z,101963.81
2022-11-13T22:26:54.367Z,101959.47
2022-11-13T22:29:39.099Z,101961.69
2022-11-13T22:32:24.018Z,101950.28
2022-11-13T22:35:09.025Z,101949.41
2022-11-13T22:37:54.046Z,101952.19
2022-11-13T22:40:38.853Z,101939.28
2022-11-13T22:43:23.648Z,101937.81
2022-11-13T22:46:09.165Z,101935.47
2022-11-13T22:48:54.597Z,101940.25
2022-11-13T22:51:41.062Z,101927.72
2022-11-13T22:54:26.033Z,101913.19
2022-11-13T22:57:10.957Z,101925.97
2022-11-13T22:59:55.661Z,101928.00
2022-11-13T23:02:45.941Z,101920.00
2022-11-13T23:05:34.341Z,101910.44
2022-11-13T23:08:19.275Z,101918.34
2022-11-13T23:11:04.627Z,101903.81
2022-11-13T23:13:50.325Z,101913.25
2022-11-13T23:16:35.392Z,101912.25
2022-11-13T23:19:20.235Z,101906.59
2022-11-13T23:22:05.042Z,101906.69
2022-11-13T23:24:50.073Z,101904.47
2022-11-13T23:27:35.089Z,101913.75
2022-11-13T23:30:19.977Z,101909.13
2022-11-13T23:33:04.826Z,101909.38
2022-11-13T23:35:49.713Z,101901.97
2022-11-13T23:38:34.599Z,101906.25
2022-11-13T23:41:19.396Z,101894.72
2022-11-13T23:44:09.215Z,101895.47
2022-11-13T23:46:54.833Z,101888.97
2022-11-13T23:49:39.727Z,101890.19
2022-11-13T23:52:24.570Z,101890.19
2022-11-13T23:55:09.393Z,101891.72
2022-11-13T23:57:58.078Z,101882.94
